This is the latest recevied weather packets stored in our database for station/object DG8SBT-10. If no packets are shown the sender has not sent any weather packets the latest 10 day(s).
| Time | Temp. | Humidity | Pressure | Rain* | Wind** | Luminosity | Snow |
|---|---|---|---|---|---|---|---|
| 1787939300 | 25° C | 54% | 1015 hPa | - | - | - | - |
| 1787932999 | 27.22° C | 47% | 1014.2 hPa | - | - | - | - |
| 1787926698 | 27.22° C | 50% | 1015.2 hPa | - | - | - | - |
| 1787925800 | 27.22° C | 50% | 1015 hPa | - | - | - | - |
| 1787923998 | 27.78° C | 50% | 1015 hPa | - | - | - | - |
| 1787923098 | 27.78° C | 51% | 1015.2 hPa | - | - | - | - |
| 1787922198 | 27.78° C | 51% | 1015.1 hPa | - | - | - | - |
| 1787921298 | 26.67° C | 53% | 1014.8 hPa | - | - | - | - |
| 1787920398 | 27.22° C | 52% | 1015.5 hPa | - | - | - | - |
| 1787919498 | 27.78° C | 51% | 1015.8 hPa | - | - | - | - |
| 1787918597 | 28.33° C | 51% | 1015.2 hPa | - | - | - | - |
| 1787917697 | 28.33° C | 51% | 1014.8 hPa | - | - | - | - |
| 1787916796 | 28.33° C | 51% | 1014.4 hPa | - | - | - | - |
| 1787915896 | 27.78° C | 52% | 1014.7 hPa | - | - | - | - |
| 1787914996 | 28.33° C | 51% | 1014.9 hPa | - | - | - | - |
| 1787913196 | 28.33° C | 51% | 1014 hPa | - | - | - | - |
| 1787912296 | 27.22° C | 54% | 1014.4 hPa | - | - | - | - |
| 1787911396 | 27.22° C | 51% | 1014.5 hPa | - | - | - | - |
| 1787910495 | 27.22° C | 52% | 1014.2 hPa | - | - | - | - |
| 1787909595 | 27.22° C | 52% | 1014.7 hPa | - | - | - | - |
| 1787908695 | 27.22° C | 53% | 1015.8 hPa | - | - | - | - |
| 1787907795 | 26.67° C | 54% | 1016.6 hPa | - | - | - | - |
| 1787906895 | 27.22° C | 55% | 1016 hPa | - | - | - | - |
| 1787905996 | 27.22° C | 55% | 1014 hPa | - | - | - | - |
| 1787905095 | 27.78° C | 55% | 1013.5 hPa | - | - | - | - |
* Rain since midnight (hover to see other rain measurements)
** Current wind speed in m/s (hover to see current wind gust speed)